createdAt,value
2023-05-14T00:01:09.103Z,3.30
2023-05-14T00:03:37.845Z,3.20
2023-05-14T00:08:36.990Z,3.70
2023-05-14T00:11:05.229Z,3.90
2023-05-14T00:13:33.593Z,3.30
2023-05-14T00:16:03.062Z,3.70
2023-05-14T00:18:31.429Z,3.70
2023-05-14T00:20:59.651Z,3.60
2023-05-14T00:23:27.826Z,3.60
2023-05-14T00:25:57.726Z,3.30
2023-05-14T00:28:26.099Z,3.40
2023-05-14T00:30:54.403Z,3.90
2023-05-14T00:33:22.571Z,4.00
2023-05-14T00:35:52.000Z,3.90
2023-05-14T00:38:20.229Z,3.70
2023-05-14T00:40:52.879Z,3.70
2023-05-14T00:43:23.153Z,3.40
2023-05-14T00:45:55.504Z,3.80
2023-05-14T00:48:24.899Z,4.00
2023-05-14T00:50:54.343Z,4.20
2023-05-14T00:53:49.846Z,3.10
2023-05-14T00:56:19.871Z,3.50
2023-05-14T00:58:48.314Z,3.60
2023-05-14T01:01:17.231Z,3.30
2023-05-14T01:03:47.348Z,3.00
2023-05-14T01:06:27.575Z,3.30
2023-05-14T01:09:23.445Z,3.20
2023-05-14T01:12:20.922Z,3.10
2023-05-14T01:15:22.047Z,3.60
2023-05-14T01:18:15.086Z,3.70
2023-05-14T01:20:44.976Z,3.10
2023-05-14T01:23:15.677Z,3.90
2023-05-14T01:25:45.401Z,2.90
2023-05-14T01:28:26.289Z,3.60
2023-05-14T01:31:06.079Z,3.40
2023-05-14T01:33:36.929Z,3.20
2023-05-14T01:36:05.755Z,3.30
2023-05-14T01:38:36.480Z,3.20
2023-05-14T01:41:07.738Z,3.80
2023-05-14T01:43:36.794Z,3.30
2023-05-14T01:48:34.614Z,3.10
2023-05-14T01:51:03.183Z,3.40
2023-05-14T01:53:31.360Z,3.10
2023-05-14T01:55:59.736Z,3.40
2023-05-14T01:58:29.547Z,3.70
2023-05-14T02:00:57.876Z,3.80
2023-05-14T02:03:26.266Z,3.30
2023-05-14T02:05:55.088Z,3.30
2023-05-14T02:08:23.516Z,3.40
2023-05-14T02:10:51.788Z,3.40
2023-05-14T02:13:20.238Z,3.90
2023-05-14T02:15:49.503Z,3.30
2023-05-14T02:18:17.699Z,3.40
2023-05-14T02:21:11.145Z,2.90
2023-05-14T02:23:42.170Z,3.80
2023-05-14T02:26:12.988Z,3.50
2023-05-14T02:28:41.624Z,2.70
2023-05-14T02:31:09.720Z,3.60
2023-05-14T02:33:38.320Z,3.00
2023-05-14T02:36:07.065Z,3.60
2023-05-14T02:41:03.915Z,3.30
2023-05-14T02:47:41.588Z,2.80
2023-05-14T02:50:12.138Z,3.30
2023-05-14T02:52:40.323Z,2.90
2023-05-14T02:55:09.137Z,3.50
2023-05-14T02:57:37.505Z,3.30
2023-05-14T03:00:06.919Z,3.30
2023-05-14T03:02:36.327Z,3.80
2023-05-14T03:05:05.628Z,3.30
2023-05-14T03:07:34.198Z,3.50
2023-05-14T03:10:02.504Z,3.50
2023-05-14T03:12:30.953Z,3.10
2023-05-14T03:14:59.306Z,3.70
2023-05-14T03:17:27.725Z,3.50
2023-05-14T03:19:55.986Z,3.10
2023-05-14T03:22:24.157Z,3.30
2023-05-14T03:27:21.632Z,3.20
2023-05-14T03:29:50.327Z,3.40
2023-05-14T03:32:20.047Z,3.40
2023-05-14T03:34:48.355Z,3.20
2023-05-14T03:37:17.394Z,2.90
2023-05-14T03:39:46.065Z,3.10
2023-05-14T03:44:45.711Z,2.60
2023-05-14T03:47:14.276Z,3.20
2023-05-14T03:49:42.356Z,3.10
2023-05-14T03:52:11.511Z,3.00
2023-05-14T03:54:41.454Z,3.30
2023-05-14T03:57:09.435Z,3.10
2023-05-14T03:59:37.913Z,3.20
2023-05-14T04:02:06.286Z,2.90
2023-05-14T04:04:34.491Z,2.70
2023-05-14T04:07:07.192Z,2.90
2023-05-14T04:09:35.420Z,3.10
2023-05-14T04:12:04.509Z,3.30
2023-05-14T04:21:07.752Z,3.30
2023-05-14T04:23:36.228Z,2.90
2023-05-14T04:26:05.536Z,3.30
2023-05-14T04:28:33.553Z,2.70
2023-05-14T04:31:01.875Z,3.20
2023-05-14T04:33:30.275Z,3.70
2023-05-14T04:35:58.731Z,3.50
2023-05-14T04:38:26.832Z,2.80
2023-05-14T04:40:55.380Z,4.00
2023-05-14T04:43:51.194Z,3.30
2023-05-14T04:46:19.444Z,3.50
2023-05-14T04:48:50.817Z,3.30
2023-05-14T04:51:19.296Z,3.00
2023-05-14T04:53:47.473Z,3.10
2023-05-14T04:56:15.848Z,2.90
2023-05-14T04:58:44.130Z,2.70
2023-05-14T05:01:12.761Z,2.70
2023-05-14T05:03:41.252Z,2.80
2023-05-14T05:06:09.568Z,3.30
2023-05-14T05:08:38.331Z,3.40
2023-05-14T05:11:06.524Z,3.80
2023-05-14T05:13:35.214Z,3.30
2023-05-14T05:16:03.987Z,4.00
2023-05-14T05:18:33.781Z,4.20
2023-05-14T05:21:02.311Z,4.00
2023-05-14T05:23:30.274Z,3.30
2023-05-14T05:25:58.346Z,3.00
2023-05-14T05:28:26.465Z,2.40
2023-05-14T05:30:54.919Z,2.90
2023-05-14T05:33:26.638Z,3.00
2023-05-14T05:35:55.133Z,2.30
2023-05-14T05:38:23.397Z,2.30
2023-05-14T05:40:51.772Z,2.50
2023-05-14T05:43:20.862Z,2.50
2023-05-14T05:45:49.372Z,2.00
2023-05-14T05:48:18.037Z,2.10
2023-05-14T05:50:50.433Z,2.00
2023-05-14T05:53:19.340Z,2.90
2023-05-14T05:55:47.463Z,1.80
2023-05-14T05:58:18.221Z,1.90
2023-05-14T06:00:48.112Z,2.00
2023-05-14T06:03:16.318Z,2.20
2023-05-14T06:05:44.396Z,1.80
2023-05-14T06:08:14.581Z,1.70
2023-05-14T06:13:11.565Z,2.30
2023-05-14T06:15:39.810Z,1.70
2023-05-14T06:18:08.150Z,2.50
2023-05-14T06:20:36.465Z,3.50
2023-05-14T06:25:34.086Z,1.90
2023-05-14T06:28:02.585Z,1.80
2023-05-14T06:30:31.048Z,1.80
2023-05-14T06:33:00.076Z,2.20
2023-05-14T06:35:29.247Z,2.10
2023-05-14T06:37:57.815Z,2.20
2023-05-14T06:42:54.531Z,2.00
2023-05-14T06:45:23.125Z,1.70
2023-05-14T06:47:51.309Z,2.00
2023-05-14T06:50:19.657Z,2.10
2023-05-14T06:52:49.263Z,2.20
2023-05-14T06:55:17.998Z,2.00
2023-05-14T06:57:46.958Z,1.70
2023-05-14T07:00:16.141Z,1.90
2023-05-14T07:02:44.196Z,2.10
2023-05-14T07:05:42.476Z,1.70
2023-05-14T07:08:11.676Z,2.20
2023-05-14T07:10:41.712Z,2.10
2023-05-14T07:13:09.982Z,2.10
2023-05-14T07:15:37.992Z,2.50
2023-05-14T07:18:08.745Z,1.90
2023-05-14T07:20:38.082Z,2.20
2023-05-14T07:23:06.360Z,2.00
2023-05-14T07:25:34.636Z,1.90
2023-05-14T07:28:02.900Z,1.90
2023-05-14T07:30:31.072Z,2.10
2023-05-14T07:32:59.226Z,2.30
2023-05-14T07:35:27.328Z,2.20
2023-05-14T07:37:55.560Z,2.30
2023-05-14T07:40:27.499Z,2.60
2023-05-14T07:42:55.946Z,1.90
2023-05-14T07:45:24.327Z,1.90
2023-05-14T07:47:52.800Z,2.70
2023-05-14T07:50:21.478Z,2.20
2023-05-14T07:52:50.883Z,2.10
2023-05-14T07:57:47.697Z,2.20
2023-05-14T08:00:18.788Z,2.20
2023-05-14T08:02:46.916Z,2.10
2023-05-14T08:05:16.152Z,2.40
2023-05-14T08:07:45.145Z,2.10
2023-05-14T08:12:43.957Z,2.00
2023-05-14T08:15:13.470Z,2.20
2023-05-14T08:17:41.905Z,2.40
2023-05-14T08:20:12.880Z,2.10
2023-05-14T08:22:42.795Z,2.50
2023-05-14T08:25:11.588Z,1.70
2023-05-14T08:27:42.112Z,2.30
2023-05-14T08:30:11.516Z,1.80
2023-05-14T08:32:39.774Z,1.90
2023-05-14T08:35:09.079Z,2.50
2023-05-14T08:37:37.397Z,2.10
2023-05-14T08:40:08.428Z,2.30
2023-05-14T08:42:45.580Z,2.30
2023-05-14T08:45:20.880Z,2.00
2023-05-14T08:47:51.447Z,1.90
2023-05-14T08:50:22.921Z,2.30
2023-05-14T08:52:54.459Z,2.00
2023-05-14T08:55:30.205Z,2.10
2023-05-14T08:57:58.375Z,2.10
2023-05-14T09:00:26.671Z,2.30
2023-05-14T09:02:57.597Z,2.10
2023-05-14T09:05:26.478Z,2.00
2023-05-14T09:07:54.748Z,2.30
2023-05-14T09:10:23.326Z,2.30
2023-05-14T09:12:52.320Z,2.40
2023-05-14T09:15:20.607Z,2.60
2023-05-14T09:17:49.043Z,2.30
2023-05-14T09:20:17.122Z,3.40
2023-05-14T09:22:45.338Z,2.50
2023-05-14T09:25:13.821Z,2.50
2023-05-14T09:27:42.320Z,2.40
2023-05-14T09:30:14.855Z,2.40
2023-05-14T09:32:44.921Z,2.30
2023-05-14T09:35:24.007Z,2.70
2023-05-14T09:37:56.791Z,2.10
2023-05-14T09:40:25.392Z,2.30
2023-05-14T09:42:55.071Z,2.50
2023-05-14T09:45:23.354Z,2.30
2023-05-14T09:47:54.107Z,2.10
2023-05-14T09:50:23.336Z,2.00
2023-05-14T09:52:51.565Z,2.10
2023-05-14T09:55:22.696Z,2.40
2023-05-14T09:57:52.406Z,2.30
2023-05-14T10:00:21.895Z,1.90
2023-05-14T10:02:53.836Z,2.20
2023-05-14T10:05:24.280Z,2.30
2023-05-14T10:07:57.304Z,2.20
2023-05-14T10:10:30.467Z,2.00
2023-05-14T10:13:09.231Z,1.70
2023-05-14T10:15:49.063Z,1.90
2023-05-14T10:18:23.608Z,1.80
2023-05-14T10:24:35.271Z,2.50
2023-05-14T10:27:06.212Z,1.90
2023-05-14T10:29:37.841Z,2.30
2023-05-14T10:37:20.905Z,2.20
2023-05-14T10:40:02.915Z,2.30
2023-05-14T10:42:38.300Z,2.80
2023-05-14T10:45:14.846Z,1.70
2023-05-14T10:47:48.333Z,2.40
2023-05-14T10:50:18.304Z,2.50
2023-05-14T10:52:46.736Z,1.90
2023-05-14T10:55:18.167Z,2.20
2023-05-14T10:57:47.373Z,2.20
2023-05-14T11:00:16.283Z,2.00
2023-05-14T11:02:45.289Z,1.90
2023-05-14T11:05:17.977Z,1.80
2023-05-14T11:07:49.503Z,2.00
2023-05-14T11:10:20.364Z,2.30
2023-05-14T11:12:52.492Z,2.00
2023-05-14T11:15:27.735Z,2.10
2023-05-14T11:17:57.052Z,2.20
2023-05-14T11:20:25.314Z,2.70
2023-05-14T11:22:53.618Z,2.10
2023-05-14T11:25:23.706Z,1.90
2023-05-14T11:27:52.352Z,2.00
2023-05-14T11:30:22.748Z,1.80
2023-05-14T11:32:54.302Z,1.80
2023-05-14T11:35:23.247Z,2.20
2023-05-14T11:38:20.807Z,2.60
2023-05-14T11:41:09.151Z,2.10
2023-05-14T11:43:37.435Z,1.80
2023-05-14T11:46:07.171Z,2.70
2023-05-14T11:48:35.411Z,2.00
2023-05-14T11:51:05.220Z,1.90
2023-05-14T11:53:33.512Z,1.80
2023-05-14T11:56:03.412Z,1.70
2023-05-14T11:58:34.797Z,1.70
2023-05-14T12:01:03.314Z,2.20
2023-05-14T12:03:32.113Z,1.70
2023-05-14T12:06:02.446Z,2.20
2023-05-14T12:08:33.231Z,1.90
2023-05-14T12:11:02.086Z,1.90
2023-05-14T12:13:32.710Z,2.30
2023-05-14T12:16:04.121Z,1.50
2023-05-14T12:18:32.958Z,1.60
2023-05-14T12:26:42.411Z,1.50
2023-05-14T12:29:14.781Z,1.70
2023-05-14T12:31:51.825Z,2.00
2023-05-14T12:34:20.383Z,1.80
2023-05-14T12:36:48.551Z,2.10
2023-05-14T12:39:17.928Z,1.80
2023-05-14T12:41:46.009Z,2.00
2023-05-14T12:44:14.051Z,1.50
2023-05-14T12:46:42.552Z,2.00
2023-05-14T12:49:11.754Z,1.40
2023-05-14T12:51:40.225Z,1.40
2023-05-14T12:54:08.450Z,1.50
2023-05-14T12:56:39.187Z,1.30
2023-05-14T12:59:07.405Z,1.60
2023-05-14T13:01:35.729Z,1.40
2023-05-14T13:06:35.299Z,1.30
2023-05-14T13:09:03.715Z,1.70
2023-05-14T13:11:32.830Z,1.60
2023-05-14T13:14:02.690Z,1.70
2023-05-14T13:16:31.442Z,1.60
2023-05-14T13:21:42.767Z,1.30
2023-05-14T13:24:11.273Z,1.40
2023-05-14T13:29:08.615Z,1.80
2023-05-14T13:31:37.284Z,1.30
2023-05-14T13:36:34.216Z,1.60
2023-05-14T13:41:35.701Z,1.50
2023-05-14T13:44:06.156Z,1.50
2023-05-14T13:46:34.517Z,1.80
2023-05-14T13:49:08.756Z,1.50
2023-05-14T13:51:37.126Z,1.60
2023-05-14T13:54:05.142Z,1.30
2023-05-14T13:56:33.498Z,1.70
2023-05-14T13:59:01.632Z,2.00
2023-05-14T14:01:32.417Z,1.70
2023-05-14T14:04:01.287Z,1.90
2023-05-14T14:06:35.284Z,1.70
2023-05-14T14:09:03.440Z,1.50
2023-05-14T14:11:31.729Z,1.40
2023-05-14T14:14:00.412Z,1.70
2023-05-14T14:16:28.648Z,1.50
2023-05-14T14:18:58.368Z,1.60
2023-05-14T14:21:28.006Z,1.40
2023-05-14T14:24:24.994Z,1.70
2023-05-14T14:26:53.171Z,1.70
2023-05-14T14:29:24.000Z,2.00
2023-05-14T14:31:53.574Z,1.20
2023-05-14T14:34:22.226Z,1.80
2023-05-14T14:36:50.642Z,1.60
2023-05-14T14:39:18.804Z,1.60
2023-05-14T14:41:48.000Z,1.50
2023-05-14T14:44:18.704Z,1.10
2023-05-14T14:46:50.483Z,1.40
2023-05-14T14:49:19.070Z,1.40
2023-05-14T14:51:48.722Z,1.50
2023-05-14T14:54:16.957Z,1.70
2023-05-14T14:56:46.360Z,1.20
2023-05-14T14:59:14.594Z,1.60
2023-05-14T15:01:43.262Z,1.30
2023-05-14T15:04:12.102Z,1.50
2023-05-14T15:06:40.384Z,1.30
2023-05-14T15:09:10.191Z,1.50
2023-05-14T15:11:38.919Z,1.60
2023-05-14T15:14:07.409Z,1.50
2023-05-14T15:16:36.084Z,1.70
2023-05-14T15:19:04.380Z,1.40
2023-05-14T15:21:33.002Z,1.50
2023-05-14T15:24:04.314Z,1.10
2023-05-14T15:26:35.903Z,1.40
2023-05-14T15:29:05.205Z,1.60
2023-05-14T15:31:33.824Z,1.40
2023-05-14T15:34:02.367Z,1.40
2023-05-14T15:36:33.205Z,1.60
2023-05-14T15:39:01.574Z,1.90
2023-05-14T15:41:33.338Z,1.40
2023-05-14T15:44:02.229Z,1.30
2023-05-14T15:46:30.830Z,1.90
2023-05-14T15:49:00.037Z,1.50
2023-05-14T15:51:28.447Z,1.20
2023-05-14T15:53:57.474Z,1.50
2023-05-14T15:56:26.714Z,1.40
2023-05-14T15:58:56.998Z,1.60
2023-05-14T16:01:25.357Z,1.70
2023-05-14T16:03:54.067Z,1.50
2023-05-14T16:06:22.742Z,1.80
2023-05-14T16:08:52.558Z,1.80
2023-05-14T16:11:21.661Z,3.80
2023-05-14T16:13:50.443Z,3.70
2023-05-14T16:16:21.221Z,6.00
2023-05-14T16:18:50.122Z,9.00
2023-05-14T16:21:18.852Z,6.10
2023-05-14T16:23:48.052Z,1.90
2023-05-14T16:26:16.395Z,1.60
2023-05-14T16:28:45.296Z,1.70
2023-05-14T16:31:14.727Z,1.90
2023-05-14T16:33:43.811Z,1.50
2023-05-14T16:36:11.959Z,1.60
2023-05-14T16:38:52.324Z,1.70
2023-05-14T16:41:29.422Z,1.50
2023-05-14T16:43:57.892Z,1.40
2023-05-14T16:46:26.698Z,1.60
2023-05-14T16:48:55.476Z,1.40
2023-05-14T16:51:24.834Z,1.50
2023-05-14T16:53:55.334Z,1.30
2023-05-14T16:56:27.415Z,1.50
2023-05-14T16:58:55.791Z,1.60
2023-05-14T17:01:23.969Z,2.00
2023-05-14T17:03:52.179Z,1.70
2023-05-14T17:06:21.731Z,1.50
2023-05-14T17:08:49.961Z,1.70
2023-05-14T17:11:18.828Z,1.80
2023-05-14T17:14:00.994Z,1.90
2023-05-14T17:16:28.814Z,1.80
2023-05-14T17:18:56.091Z,2.00
2023-05-14T17:21:24.471Z,2.30
2023-05-14T17:23:52.659Z,1.70
2023-05-14T17:26:21.465Z,1.90
2023-05-14T17:32:57.299Z,3.00
2023-05-14T17:35:26.318Z,3.20
2023-05-14T17:37:54.854Z,2.60
2023-05-14T17:40:23.133Z,2.20
2023-05-14T17:42:51.303Z,2.00
2023-05-14T17:45:24.361Z,2.70
2023-05-14T17:47:53.077Z,1.80
2023-05-14T17:50:21.389Z,1.60
2023-05-14T17:52:49.497Z,1.80
2023-05-14T17:55:19.974Z,2.40
2023-05-14T17:57:48.248Z,2.40
2023-05-14T18:00:18.058Z,2.40
2023-05-14T18:02:46.500Z,2.20
2023-05-14T18:05:14.915Z,2.00
2023-05-14T18:08:10.123Z,2.20
2023-05-14T18:10:39.324Z,2.60
2023-05-14T18:13:08.942Z,2.30
2023-05-14T18:15:37.223Z,3.00
2023-05-14T18:20:36.737Z,2.40
2023-05-14T18:23:04.948Z,2.50
2023-05-14T18:25:34.136Z,2.60
2023-05-14T18:28:03.001Z,2.60
2023-05-14T18:30:31.471Z,2.60
2023-05-14T18:33:00.216Z,2.80
2023-05-14T18:35:29.560Z,3.10
2023-05-14T18:37:58.335Z,2.90
2023-05-14T18:43:02.633Z,2.90
2023-05-14T18:45:31.067Z,3.30
2023-05-14T18:48:26.563Z,3.00
2023-05-14T18:50:54.833Z,2.60
2023-05-14T18:53:22.834Z,2.70
2023-05-14T18:55:51.387Z,2.40
2023-05-14T18:58:21.504Z,2.50
2023-05-14T19:00:49.605Z,2.90
2023-05-14T19:03:20.940Z,2.60
2023-05-14T19:05:51.763Z,2.40
2023-05-14T19:08:20.030Z,2.60
2023-05-14T19:10:48.667Z,2.80
2023-05-14T19:15:45.021Z,2.90
2023-05-14T19:18:41.627Z,3.70
2023-05-14T19:21:12.545Z,3.00
2023-05-14T19:23:42.178Z,3.10
